sensor_id;sensor_type;location;lat;lon;timestamp;P1;durP1;ratioP1;P2;durP2;ratioP2
28246;SDS011;66191;53.178;22.058;2022-12-18T00:05:07;52.50;;;17.13;;
28246;SDS011;66191;53.178;22.058;2022-12-18T00:08:00;49.03;;;17.58;;
28246;SDS011;66191;53.178;22.058;2022-12-18T00:11:08;92.18;;;23.70;;
28246;SDS011;66191;53.178;22.058;2022-12-18T00:14:14;184.13;;;38.45;;
28246;SDS011;66191;53.178;22.058;2022-12-18T00:17:47;249.20;;;44.00;;
28246;SDS011;66191;53.178;22.058;2022-12-18T00:20:57;73.93;;;21.52;;
28246;SDS011;66191;53.178;22.058;2022-12-18T00:24:11;122.50;;;42.80;;
28246;SDS011;66191;53.178;22.058;2022-12-18T00:27:20;106.82;;;42.55;;
28246;SDS011;66191;53.178;22.058;2022-12-18T00:30:35;78.43;;;31.33;;
28246;SDS011;66191;53.178;22.058;2022-12-18T00:34:01;49.50;;;17.13;;
28246;SDS011;66191;53.178;22.058;2022-12-18T00:37:31;76.40;;;20.60;;
28246;SDS011;66191;53.178;22.058;2022-12-18T00:40:18;62.25;;;18.80;;
28246;SDS011;66191;53.178;22.058;2022-12-18T00:42:53;119.75;;;42.58;;
28246;SDS011;66191;53.178;22.058;2022-12-18T00:50:10;51.75;;;18.02;;
28246;SDS011;66191;53.178;22.058;2022-12-18T00:53:59;62.95;;;23.75;;
28246;SDS011;66191;53.178;22.058;2022-12-18T00:57:20;55.10;;;16.58;;
28246;SDS011;66191;53.178;22.058;2022-12-18T01:00:35;77.50;;;21.67;;
28246;SDS011;66191;53.178;22.058;2022-12-18T01:04:26;64.65;;;21.20;;
28246;SDS011;66191;53.178;22.058;2022-12-18T01:07:58;53.45;;;16.83;;
28246;SDS011;66191;53.178;22.058;2022-12-18T01:12:08;87.25;;;24.17;;
28246;SDS011;66191;53.178;22.058;2022-12-18T01:22:35;50.58;;;15.05;;
28246;SDS011;66191;53.178;22.058;2022-12-18T01:25:47;61.70;;;16.50;;
28246;SDS011;66191;53.178;22.058;2022-12-18T01:28:51;75.63;;;19.98;;
28246;SDS011;66191;53.178;22.058;2022-12-18T01:32:15;81.75;;;22.80;;
28246;SDS011;66191;53.178;22.058;2022-12-18T01:35:53;53.03;;;16.20;;
28246;SDS011;66191;53.178;22.058;2022-12-18T01:39:40;64.75;;;17.23;;
28246;SDS011;66191;53.178;22.058;2022-12-18T01:43:15;46.20;;;14.95;;
28246;SDS011;66191;53.178;22.058;2022-12-18T02:28:43;124.70;;;25.95;;
28246;SDS011;66191;53.178;22.058;2022-12-18T02:36:57;79.80;;;19.27;;
28246;SDS011;66191;53.178;22.058;2022-12-18T02:41:25;96.28;;;22.17;;
28246;SDS011;66191;53.178;22.058;2022-12-18T02:49:01;41.38;;;12.13;;
28246;SDS011;66191;53.178;22.058;2022-12-18T02:57:19;51.80;;;14.27;;
28246;SDS011;66191;53.178;22.058;2022-12-18T03:08:50;60.50;;;15.55;;
28246;SDS011;66191;53.178;22.058;2022-12-18T03:15:53;46.28;;;13.48;;
28246;SDS011;66191;53.178;22.058;2022-12-18T03:24:42;46.03;;;14.18;;
28246;SDS011;66191;53.178;22.058;2022-12-18T03:37:33;69.50;;;26.92;;
28246;SDS011;66191;53.178;22.058;2022-12-18T03:56:02;47.05;;;13.43;;
28246;SDS011;66191;53.178;22.058;2022-12-18T04:03:45;45.92;;;13.95;;
28246;SDS011;66191;53.178;22.058;2022-12-18T04:07:01;47.03;;;14.05;;
28246;SDS011;66191;53.178;22.058;2022-12-18T04:10:21;43.75;;;13.20;;
28246;SDS011;66191;53.178;22.058;2022-12-18T04:14:10;65.95;;;16.73;;
28246;SDS011;66191;53.178;22.058;2022-12-18T04:17:20;56.42;;;16.08;;
28246;SDS011;66191;53.178;22.058;2022-12-18T04:20:58;51.50;;;14.73;;
28246;SDS011;66191;53.178;22.058;2022-12-18T04:24:20;43.63;;;14.30;;
28246;SDS011;66191;53.178;22.058;2022-12-18T04:32:32;53.65;;;15.88;;
28246;SDS011;66191;53.178;22.058;2022-12-18T04:39:09;51.83;;;16.63;;
28246;SDS011;66191;53.178;22.058;2022-12-18T04:46:06;37.85;;;13.43;;
28246;SDS011;66191;53.178;22.058;2022-12-18T04:49:54;66.53;;;21.67;;
28246;SDS011;66191;53.178;22.058;2022-12-18T04:53:12;56.47;;;20.90;;
28246;SDS011;66191;53.178;22.058;2022-12-18T05:00:29;41.95;;;15.25;;
28246;SDS011;66191;53.178;22.058;2022-12-18T05:04:00;48.33;;;16.73;;
28246;SDS011;66191;53.178;22.058;2022-12-18T05:06:55;43.05;;;14.57;;
28246;SDS011;66191;53.178;22.058;2022-12-18T05:10:19;54.97;;;18.90;;
28246;SDS011;66191;53.178;22.058;2022-12-18T05:13:35;39.25;;;12.70;;
28246;SDS011;66191;53.178;22.058;2022-12-18T05:17:21;42.95;;;14.07;;
28246;SDS011;66191;53.178;22.058;2022-12-18T05:24:25;62.92;;;19.65;;
28246;SDS011;66191;53.178;22.058;2022-12-18T05:31:13;43.95;;;14.57;;
28246;SDS011;66191;53.178;22.058;2022-12-18T05:34:23;41.22;;;13.82;;
28246;SDS011;66191;53.178;22.058;2022-12-18T05:37:37;46.47;;;15.13;;
28246;SDS011;66191;53.178;22.058;2022-12-18T05:40:47;55.92;;;20.27;;
28246;SDS011;66191;53.178;22.058;2022-12-18T05:44:18;48.65;;;17.63;;
28246;SDS011;66191;53.178;22.058;2022-12-18T05:55:05;45.78;;;15.70;;
28246;SDS011;66191;53.178;22.058;2022-12-18T05:58:41;78.00;;;22.42;;
28246;SDS011;66191;53.178;22.058;2022-12-18T06:02:24;53.47;;;18.85;;
28246;SDS011;66191;53.178;22.058;2022-12-18T06:09:39;60.92;;;21.02;;
28246;SDS011;66191;53.178;22.058;2022-12-18T06:17:06;49.45;;;17.50;;
28246;SDS011;66191;53.178;22.058;2022-12-18T06:20:33;58.00;;;18.70;;
28246;SDS011;66191;53.178;22.058;2022-12-18T06:23:45;52.53;;;18.38;;
28246;SDS011;66191;53.178;22.058;2022-12-18T06:31:22;67.80;;;24.02;;
28246;SDS011;66191;53.178;22.058;2022-12-18T06:34:23;77.40;;;26.67;;
28246;SDS011;66191;53.178;22.058;2022-12-18T06:38:10;68.15;;;22.40;;
28246;SDS011;66191;53.178;22.058;2022-12-18T06:52:49;67.45;;;26.33;;
28246;SDS011;66191;53.178;22.058;2022-12-18T06:56:27;61.20;;;20.77;;
28246;SDS011;66191;53.178;22.058;2022-12-18T06:59:56;77.88;;;27.20;;
28246;SDS011;66191;53.178;22.058;2022-12-18T07:07:00;50.95;;;18.00;;
28246;SDS011;66191;53.178;22.058;2022-12-18T07:10:24;67.72;;;25.88;;
28246;SDS011;66191;53.178;22.058;2022-12-18T07:13:34;66.72;;;25.38;;
28246;SDS011;66191;53.178;22.058;2022-12-18T07:21:31;73.05;;;24.45;;
28246;SDS011;66191;53.178;22.058;2022-12-18T07:25:03;61.28;;;22.58;;
28246;SDS011;66191;53.178;22.058;2022-12-18T07:28:36;61.17;;;21.90;;
28246;SDS011;66191;53.178;22.058;2022-12-18T07:32:35;177.70;;;82.75;;
28246;SDS011;66191;53.178;22.058;2022-12-18T07:55:31;72.05;;;24.38;;
28246;SDS011;66191;53.178;22.058;2022-12-18T08:12:57;190.52;;;72.93;;
28246;SDS011;66191;53.178;22.058;2022-12-18T08:17:09;129.73;;;53.22;;
28246;SDS011;66191;53.178;22.058;2022-12-18T08:19:59;87.45;;;30.25;;
28246;SDS011;66191;53.178;22.058;2022-12-18T08:22:57;81.32;;;31.52;;
28246;SDS011;66191;53.178;22.058;2022-12-18T08:25:54;98.85;;;47.78;;
28246;SDS011;66191;53.178;22.058;2022-12-18T08:29:00;100.05;;;37.75;;
28246;SDS011;66191;53.178;22.058;2022-12-18T08:31:46;77.38;;;29.65;;
28246;SDS011;66191;53.178;22.058;2022-12-18T08:34:48;70.40;;;25.48;;
28246;SDS011;66191;53.178;22.058;2022-12-18T08:37:47;77.13;;;32.10;;
28246;SDS011;66191;53.178;22.058;2022-12-18T08:41:24;113.30;;;40.85;;
28246;SDS011;66191;53.178;22.058;2022-12-18T08:44:26;133.35;;;65.05;;
28246;SDS011;66191;53.178;22.058;2022-12-18T08:48:25;111.25;;;52.30;;
28246;SDS011;66191;53.178;22.058;2022-12-18T08:51:18;126.85;;;60.95;;
28246;SDS011;66191;53.178;22.058;2022-12-18T08:55:05;102.68;;;44.75;;
28246;SDS011;66191;53.178;22.058;2022-12-18T09:02:47;83.13;;;31.20;;
28246;SDS011;66191;53.178;22.058;2022-12-18T09:15:39;182.98;;;93.78;;
28246;SDS011;66191;53.178;22.058;2022-12-18T09:45:38;113.30;;;39.17;;
28246;SDS011;66191;53.178;22.058;2022-12-18T10:33:58;133.30;;;53.03;;
28246;SDS011;66191;53.178;22.058;2022-12-18T10:37:23;134.60;;;48.50;;
28246;SDS011;66191;53.178;22.058;2022-12-18T10:44:11;98.90;;;33.58;;
28246;SDS011;66191;53.178;22.058;2022-12-18T11:09:35;136.52;;;50.45;;
28246;SDS011;66191;53.178;22.058;2022-12-18T11:12:43;117.45;;;50.20;;
28246;SDS011;66191;53.178;22.058;2022-12-18T11:16:25;100.50;;;37.60;;
28246;SDS011;66191;53.178;22.058;2022-12-18T11:19:45;134.75;;;57.00;;
28246;SDS011;66191;53.178;22.058;2022-12-18T11:31:38;119.32;;;48.60;;
28246;SDS011;66191;53.178;22.058;2022-12-18T11:38:48;203.10;;;92.93;;
28246;SDS011;66191;53.178;22.058;2022-12-18T11:45:48;91.57;;;35.53;;
28246;SDS011;66191;53.178;22.058;2022-12-18T11:49:55;105.93;;;41.72;;
28246;SDS011;66191;53.178;22.058;2022-12-18T11:54:02;107.45;;;42.13;;
28246;SDS011;66191;53.178;22.058;2022-12-18T12:02:11;140.75;;;57.15;;
28246;SDS011;66191;53.178;22.058;2022-12-18T12:42:10;107.05;;;41.85;;
28246;SDS011;66191;53.178;22.058;2022-12-18T13:02:08;109.38;;;42.03;;
28246;SDS011;66191;53.178;22.058;2022-12-18T13:06:33;137.10;;;53.03;;
28246;SDS011;66191;53.178;22.058;2022-12-18T13:09:33;121.80;;;47.08;;
28246;SDS011;66191;53.178;22.058;2022-12-18T13:12:56;166.88;;;58.40;;
28246;SDS011;66191;53.178;22.058;2022-12-18T13:21:25;153.55;;;61.13;;
28246;SDS011;66191;53.178;22.058;2022-12-18T13:24:23;162.73;;;80.30;;
28246;SDS011;66191;53.178;22.058;2022-12-18T13:27:58;129.35;;;55.60;;
28246;SDS011;66191;53.178;22.058;2022-12-18T13:39:34;145.93;;;57.67;;
28246;SDS011;66191;53.178;22.058;2022-12-18T13:47:05;351.20;;;133.27;;
28246;SDS011;66191;53.178;22.058;2022-12-18T13:54:06;180.63;;;79.93;;
28246;SDS011;66191;53.178;22.058;2022-12-18T13:57:43;144.65;;;55.22;;
28246;SDS011;66191;53.178;22.058;2022-12-18T14:00:45;128.45;;;44.63;;
28246;SDS011;66191;53.178;22.058;2022-12-18T14:03:47;126.50;;;50.63;;
28246;SDS011;66191;53.178;22.058;2022-12-18T14:07:16;131.20;;;51.50;;
28246;SDS011;66191;53.178;22.058;2022-12-18T14:10:28;133.57;;;51.88;;
28246;SDS011;66191;53.178;22.058;2022-12-18T14:13:43;113.63;;;43.95;;
28246;SDS011;66191;53.178;22.058;2022-12-18T15:01:44;142.10;;;51.20;;
28246;SDS011;66191;53.178;22.058;2022-12-18T15:09:27;159.38;;;57.58;;
28246;SDS011;66191;53.178;22.058;2022-12-18T15:44:35;200.57;;;74.43;;
28246;SDS011;66191;53.178;22.058;2022-12-18T15:48:00;389.23;;;155.80;;
28246;SDS011;66191;53.178;22.058;2022-12-18T15:51:53;312.30;;;156.25;;
28246;SDS011;66191;53.178;22.058;2022-12-18T15:55:26;159.35;;;57.22;;
28246;SDS011;66191;53.178;22.058;2022-12-18T16:08:57;194.95;;;67.43;;
28246;SDS011;66191;53.178;22.058;2022-12-18T16:11:30;194.18;;;62.22;;
28246;SDS011;66191;53.178;22.058;2022-12-18T16:18:45;171.45;;;53.75;;
28246;SDS011;66191;53.178;22.058;2022-12-18T16:24:29;217.80;;;71.80;;
28246;SDS011;66191;53.178;22.058;2022-12-18T16:28:05;175.65;;;51.95;;
28246;SDS011;66191;53.178;22.058;2022-12-18T16:35:03;208.50;;;70.40;;
28246;SDS011;66191;53.178;22.058;2022-12-18T16:38:33;182.03;;;54.87;;
28246;SDS011;66191;53.178;22.058;2022-12-18T16:42:18;225.70;;;74.35;;
28246;SDS011;66191;53.178;22.058;2022-12-18T16:45:43;183.73;;;55.33;;
28246;SDS011;66191;53.178;22.058;2022-12-18T16:48:43;169.48;;;50.42;;
28246;SDS011;66191;53.178;22.058;2022-12-18T16:51:52;147.05;;;42.63;;
28246;SDS011;66191;53.178;22.058;2022-12-18T16:54:54;164.15;;;47.38;;
28246;SDS011;66191;53.178;22.058;2022-12-18T16:57:50;160.88;;;49.35;;
28246;SDS011;66191;53.178;22.058;2022-12-18T17:01:08;152.40;;;44.20;;
28246;SDS011;66191;53.178;22.058;2022-12-18T17:04:39;173.77;;;48.80;;
28246;SDS011;66191;53.178;22.058;2022-12-18T17:07:35;171.23;;;49.60;;
28246;SDS011;66191;53.178;22.058;2022-12-18T17:10:19;169.93;;;49.10;;
28246;SDS011;66191;53.178;22.058;2022-12-18T17:13:12;196.57;;;56.20;;
28246;SDS011;66191;53.178;22.058;2022-12-18T17:16:20;193.85;;;59.47;;
28246;SDS011;66191;53.178;22.058;2022-12-18T17:18:59;206.75;;;62.35;;
28246;SDS011;66191;53.178;22.058;2022-12-18T17:22:29;213.57;;;65.32;;
28246;SDS011;66191;53.178;22.058;2022-12-18T17:25:30;186.57;;;55.05;;
28246;SDS011;66191;53.178;22.058;2022-12-18T17:28:33;181.05;;;55.97;;
28246;SDS011;66191;53.178;22.058;2022-12-18T18:35:43;210.93;;;72.95;;
28246;SDS011;66191;53.178;22.058;2022-12-18T18:38:37;221.73;;;70.88;;
28246;SDS011;66191;53.178;22.058;2022-12-18T18:41:46;162.57;;;53.53;;
28246;SDS011;66191;53.178;22.058;2022-12-18T18:44:25;168.10;;;56.70;;
28246;SDS011;66191;53.178;22.058;2022-12-18T18:48:00;191.40;;;64.35;;
28246;SDS011;66191;53.178;22.058;2022-12-18T18:58:45;167.20;;;53.70;;
28246;SDS011;66191;53.178;22.058;2022-12-18T19:10:50;182.43;;;58.05;;
28246;SDS011;66191;53.178;22.058;2022-12-18T19:21:23;137.98;;;46.92;;
28246;SDS011;66191;53.178;22.058;2022-12-18T20:05:54;131.73;;;41.53;;
28246;SDS011;66191;53.178;22.058;2022-12-18T20:14:14;148.40;;;54.47;;
28246;SDS011;66191;53.178;22.058;2022-12-18T20:17:18;106.07;;;33.23;;
28246;SDS011;66191;53.178;22.058;2022-12-18T20:24:51;330.58;;;118.95;;
28246;SDS011;66191;53.178;22.058;2022-12-18T20:52:42;190.77;;;54.90;;
28246;SDS011;66191;53.178;22.058;2022-12-18T20:55:10;194.27;;;56.40;;
28246;SDS011;66191;53.178;22.058;2022-12-18T20:57:37;200.30;;;59.55;;
28246;SDS011;66191;53.178;22.058;2022-12-18T21:05:42;153.10;;;45.30;;
28246;SDS011;66191;53.178;22.058;2022-12-18T21:08:14;178.00;;;52.90;;
28246;SDS011;66191;53.178;22.058;2022-12-18T21:10:45;187.88;;;56.20;;
28246;SDS011;66191;53.178;22.058;2022-12-18T21:13:17;175.07;;;52.85;;
28246;SDS011;66191;53.178;22.058;2022-12-18T21:15:48;174.15;;;54.35;;
28246;SDS011;66191;53.178;22.058;2022-12-18T21:18:25;191.85;;;57.83;;
28246;SDS011;66191;53.178;22.058;2022-12-18T21:20:58;180.25;;;58.03;;
28246;SDS011;66191;53.178;22.058;2022-12-18T21:23:30;128.68;;;43.20;;
28246;SDS011;66191;53.178;22.058;2022-12-18T21:26:13;135.90;;;43.92;;
28246;SDS011;66191;53.178;22.058;2022-12-18T21:28:46;136.18;;;43.58;;
28246;SDS011;66191;53.178;22.058;2022-12-18T21:31:17;142.48;;;46.05;;
28246;SDS011;66191;53.178;22.058;2022-12-18T21:33:50;136.15;;;45.03;;
28246;SDS011;66191;53.178;22.058;2022-12-18T21:36:31;140.35;;;45.10;;
28246;SDS011;66191;53.178;22.058;2022-12-18T21:39:03;134.15;;;44.42;;
28246;SDS011;66191;53.178;22.058;2022-12-18T21:41:35;169.93;;;66.00;;
28246;SDS011;66191;53.178;22.058;2022-12-18T21:44:22;178.18;;;68.65;;
28246;SDS011;66191;53.178;22.058;2022-12-18T21:46:54;142.73;;;47.90;;
28246;SDS011;66191;53.178;22.058;2022-12-18T21:49:38;137.65;;;44.22;;
28246;SDS011;66191;53.178;22.058;2022-12-18T21:52:13;127.60;;;42.17;;
28246;SDS011;66191;53.178;22.058;2022-12-18T21:54:44;141.68;;;45.45;;
28246;SDS011;66191;53.178;22.058;2022-12-18T21:57:15;189.55;;;71.63;;
28246;SDS011;66191;53.178;22.058;2022-12-18T21:59:50;149.38;;;50.60;;
28246;SDS011;66191;53.178;22.058;2022-12-18T22:02:21;145.30;;;45.63;;
28246;SDS011;66191;53.178;22.058;2022-12-18T22:04:56;130.35;;;42.03;;
28246;SDS011;66191;53.178;22.058;2022-12-18T22:07:30;147.15;;;51.13;;
28246;SDS011;66191;53.178;22.058;2022-12-18T22:10:02;160.63;;;51.40;;
28246;SDS011;66191;53.178;22.058;2022-12-18T22:12:33;176.85;;;56.28;;
28246;SDS011;66191;53.178;22.058;2022-12-18T22:15:11;176.70;;;64.30;;
28246;SDS011;66191;53.178;22.058;2022-12-18T22:17:48;158.57;;;53.67;;
28246;SDS011;66191;53.178;22.058;2022-12-18T22:20:26;137.20;;;44.17;;
28246;SDS011;66191;53.178;22.058;2022-12-18T22:23:00;145.10;;;48.97;;
28246;SDS011;66191;53.178;22.058;2022-12-18T22:25:32;113.97;;;39.85;;
28246;SDS011;66191;53.178;22.058;2022-12-18T22:28:06;167.30;;;55.28;;
28246;SDS011;66191;53.178;22.058;2022-12-18T22:30:49;149.82;;;51.50;;
28246;SDS011;66191;53.178;22.058;2022-12-18T22:33:26;130.73;;;44.63;;
28246;SDS011;66191;53.178;22.058;2022-12-18T22:36:02;130.13;;;44.65;;
28246;SDS011;66191;53.178;22.058;2022-12-18T22:38:37;111.55;;;39.90;;
28246;SDS011;66191;53.178;22.058;2022-12-18T22:41:08;109.50;;;36.83;;
28246;SDS011;66191;53.178;22.058;2022-12-18T22:43:39;108.97;;;38.97;;
28246;SDS011;66191;53.178;22.058;2022-12-18T22:46:11;117.25;;;45.63;;
28246;SDS011;66191;53.178;22.058;2022-12-18T22:48:45;140.43;;;50.90;;
28246;SDS011;66191;53.178;22.058;2022-12-18T22:51:16;144.88;;;48.97;;
28246;SDS011;66191;53.178;22.058;2022-12-18T22:53:51;132.35;;;47.55;;
28246;SDS011;66191;53.178;22.058;2022-12-18T22:56:23;112.32;;;38.38;;
28246;SDS011;66191;53.178;22.058;2022-12-18T22:58:54;115.07;;;42.92;;
28246;SDS011;66191;53.178;22.058;2022-12-18T23:01:26;125.28;;;47.53;;
28246;SDS011;66191;53.178;22.058;2022-12-18T23:03:58;114.18;;;41.28;;
28246;SDS011;66191;53.178;22.058;2022-12-18T23:06:30;104.15;;;36.75;;
28246;SDS011;66191;53.178;22.058;2022-12-18T23:09:04;100.03;;;36.83;;
28246;SDS011;66191;53.178;22.058;2022-12-18T23:11:35;97.00;;;33.63;;
28246;SDS011;66191;53.178;22.058;2022-12-18T23:14:07;104.22;;;36.80;;
28246;SDS011;66191;53.178;22.058;2022-12-18T23:16:38;87.10;;;33.65;;
28246;SDS011;66191;53.178;22.058;2022-12-18T23:19:12;99.18;;;39.53;;
28246;SDS011;66191;53.178;22.058;2022-12-18T23:21:44;86.25;;;32.03;;
28246;SDS011;66191;53.178;22.058;2022-12-18T23:24:18;87.80;;;31.10;;
28246;SDS011;66191;53.178;22.058;2022-12-18T23:26:49;82.93;;;30.33;;
28246;SDS011;66191;53.178;22.058;2022-12-18T23:29:21;94.90;;;35.13;;
28246;SDS011;66191;53.178;22.058;2022-12-18T23:31:52;93.18;;;33.30;;
28246;SDS011;66191;53.178;22.058;2022-12-18T23:34:23;93.28;;;37.35;;
28246;SDS011;66191;53.178;22.058;2022-12-18T23:36:55;109.07;;;40.55;;
28246;SDS011;66191;53.178;22.058;2022-12-18T23:39:29;106.53;;;37.03;;
28246;SDS011;66191;53.178;22.058;2022-12-18T23:42:01;102.90;;;37.25;;
28246;SDS011;66191;53.178;22.058;2022-12-18T23:44:32;98.30;;;33.03;;
28246;SDS011;66191;53.178;22.058;2022-12-18T23:47:03;110.80;;;39.05;;
28246;SDS011;66191;53.178;22.058;2022-12-18T23:49:34;127.75;;;41.53;;
28246;SDS011;66191;53.178;22.058;2022-12-18T23:52:06;103.53;;;36.15;;
28246;SDS011;66191;53.178;22.058;2022-12-18T23:54:40;96.07;;;34.35;;
28246;SDS011;66191;53.178;22.058;2022-12-18T23:57:11;83.03;;;29.58;;
28246;SDS011;66191;53.178;22.058;2022-12-18T23:59:45;99.40;;;37.55;;
